createdAt,value
2018-10-16T00:00:13.905Z,15.30
2018-10-16T00:02:42.975Z,15.40
2018-10-16T00:05:11.715Z,15.40
2018-10-16T00:07:40.292Z,15.30
2018-10-16T00:10:09.950Z,15.30
2018-10-16T00:12:38.485Z,15.30
2018-10-16T00:15:08.639Z,15.30
2018-10-16T00:17:37.189Z,15.30
2018-10-16T00:20:06.963Z,15.30
2018-10-16T00:22:35.542Z,15.30
2018-10-16T00:25:04.125Z,15.20
2018-10-16T00:27:32.652Z,15.20
2018-10-16T00:30:01.203Z,15.20
2018-10-16T00:32:29.823Z,15.10
2018-10-16T00:34:58.461Z,15.10
2018-10-16T00:37:26.989Z,15.10
2018-10-16T00:39:55.501Z,15.20
2018-10-16T00:42:24.056Z,15.20
2018-10-16T00:44:52.665Z,15.10
2018-10-16T00:47:21.197Z,15.10
2018-10-16T00:49:49.753Z,15.20
2018-10-16T00:52:18.380Z,15.20
2018-10-16T00:54:46.918Z,15.20
2018-10-16T00:57:15.476Z,15.20
2018-10-16T00:59:44.061Z,15.20
2018-10-16T01:02:12.687Z,15.20
2018-10-16T01:04:41.380Z,15.20
2018-10-16T01:07:09.916Z,15.20
2018-10-16T01:09:38.465Z,15.10
2018-10-16T01:12:07.550Z,15.10
2018-10-16T01:14:36.150Z,15.10
2018-10-16T01:17:05.241Z,15.10
2018-10-16T01:19:33.792Z,15.00
2018-10-16T01:22:02.345Z,15.00
2018-10-16T01:24:30.905Z,15.00
2018-10-16T01:26:59.564Z,15.00
2018-10-16T01:29:28.124Z,14.90
2018-10-16T01:31:56.756Z,14.90
2018-10-16T01:34:25.351Z,14.80
2018-10-16T01:36:54.132Z,14.80
2018-10-16T01:39:22.784Z,14.80
2018-10-16T01:41:51.358Z,14.70
2018-10-16T01:44:19.997Z,14.70
2018-10-16T01:46:48.528Z,14.70
2018-10-16T01:49:17.097Z,14.60
2018-10-16T01:51:45.646Z,14.60
2018-10-16T01:54:14.195Z,14.60
2018-10-16T01:56:42.745Z,14.60
2018-10-16T01:59:11.515Z,14.60
2018-10-16T02:01:40.095Z,14.60
2018-10-16T02:04:08.629Z,14.50
2018-10-16T02:06:37.296Z,14.50
2018-10-16T02:09:08.620Z,14.40
2018-10-16T02:11:37.268Z,14.40
2018-10-16T02:14:05.833Z,14.40
2018-10-16T02:16:34.480Z,14.40
2018-10-16T02:19:03.093Z,14.30
2018-10-16T02:21:31.642Z,14.30
2018-10-16T02:24:00.173Z,14.20
2018-10-16T02:26:28.809Z,14.20
2018-10-16T02:28:57.326Z,14.20
2018-10-16T02:31:26.059Z,14.10
2018-10-16T02:33:54.568Z,14.10
2018-10-16T02:36:23.104Z,14.00
2018-10-16T02:38:51.772Z,14.00
2018-10-16T02:41:20.381Z,14.00
2018-10-16T02:43:49.051Z,14.00
2018-10-16T02:46:17.604Z,14.00
2018-10-16T02:48:46.125Z,14.00
2018-10-16T02:51:14.671Z,14.00
2018-10-16T02:53:43.216Z,14.00
2018-10-16T02:56:11.770Z,13.90
2018-10-16T02:58:40.303Z,13.90
2018-10-16T03:01:09.349Z,13.90
2018-10-16T03:03:39.485Z,13.90
2018-10-16T03:06:08.175Z,13.90
2018-10-16T03:08:37.470Z,13.90
2018-10-16T03:11:06.349Z,13.80
2018-10-16T03:13:35.033Z,13.90
2018-10-16T03:16:03.605Z,13.90
2018-10-16T03:18:32.514Z,13.80
2018-10-16T03:21:01.046Z,13.80
2018-10-16T03:23:29.612Z,13.90
2018-10-16T03:25:58.179Z,13.80
2018-10-16T03:28:26.689Z,13.70
2018-10-16T03:30:55.247Z,13.70
2018-10-16T03:33:23.978Z,13.70
2018-10-16T03:35:52.540Z,13.70
2018-10-16T03:38:21.053Z,13.70
2018-10-16T03:40:49.710Z,13.60
2018-10-16T03:43:18.311Z,13.60
2018-10-16T03:45:46.875Z,13.60
2018-10-16T03:48:15.471Z,13.60
2018-10-16T03:50:44.053Z,13.60
2018-10-16T03:53:12.632Z,13.50
2018-10-16T03:55:41.308Z,13.50
2018-10-16T03:58:09.920Z,13.50
2018-10-16T04:00:38.451Z,13.50
2018-10-16T04:03:07.002Z,13.50
2018-10-16T04:05:35.575Z,13.50
2018-10-16T04:08:04.168Z,13.50
2018-10-16T04:10:33.154Z,13.40
2018-10-16T04:13:02.308Z,13.40
2018-10-16T04:15:30.869Z,13.40
2018-10-16T04:17:59.459Z,13.50
2018-10-16T04:20:28.575Z,13.40
2018-10-16T04:22:57.165Z,13.40
2018-10-16T04:25:25.766Z,13.40
2018-10-16T04:27:54.398Z,13.50
2018-10-16T04:30:23.089Z,13.40
2018-10-16T04:32:51.585Z,13.40
2018-10-16T04:35:20.133Z,13.40
2018-10-16T04:37:48.770Z,13.40
2018-10-16T04:40:17.312Z,13.40
2018-10-16T04:42:45.869Z,13.40
2018-10-16T04:45:14.385Z,13.30
2018-10-16T04:47:43.137Z,13.40
2018-10-16T04:50:12.000Z,13.30
2018-10-16T04:52:41.020Z,13.30
2018-10-16T04:55:09.671Z,13.20
2018-10-16T04:57:38.282Z,13.30
2018-10-16T05:00:07.962Z,13.30
2018-10-16T05:02:37.134Z,13.30
2018-10-16T05:05:06.876Z,13.30
2018-10-16T05:07:35.425Z,13.20
2018-10-16T05:10:04.045Z,13.20
2018-10-16T05:12:32.566Z,13.20
2018-10-16T05:15:01.125Z,13.20
2018-10-16T05:17:29.805Z,13.20
2018-10-16T05:19:58.304Z,13.20
2018-10-16T05:22:27.120Z,13.30
2018-10-16T05:24:55.798Z,13.30
2018-10-16T05:27:24.334Z,13.20
2018-10-16T05:29:53.450Z,13.10
2018-10-16T05:32:22.022Z,13.20
2018-10-16T05:34:50.613Z,13.10
2018-10-16T05:37:19.166Z,13.10
2018-10-16T05:39:47.713Z,13.10
2018-10-16T05:42:16.273Z,13.10
2018-10-16T05:44:44.842Z,13.10
2018-10-16T05:47:13.363Z,13.10
2018-10-16T05:49:41.943Z,13.20
2018-10-16T05:52:10.626Z,13.10
2018-10-16T05:54:39.424Z,13.10
2018-10-16T05:57:08.082Z,13.20
2018-10-16T05:59:36.605Z,13.10
2018-10-16T06:02:05.301Z,13.10
2018-10-16T06:04:33.885Z,13.10
2018-10-16T06:07:02.528Z,13.30
2018-10-16T06:09:31.121Z,13.20
2018-10-16T06:11:59.675Z,13.10
2018-10-16T06:14:28.232Z,13.10
2018-10-16T06:16:56.908Z,13.20
2018-10-16T06:19:25.440Z,13.20
2018-10-16T06:21:54.059Z,13.10
2018-10-16T06:24:22.743Z,13.10
2018-10-16T06:26:52.137Z,13.10
2018-10-16T06:29:20.744Z,13.30
2018-10-16T06:31:49.277Z,13.20
2018-10-16T06:34:17.818Z,13.20
2018-10-16T06:36:46.566Z,13.20
2018-10-16T06:39:15.160Z,13.20
2018-10-16T06:41:43.955Z,13.30
2018-10-16T06:44:12.517Z,13.30
2018-10-16T06:46:41.148Z,13.30
2018-10-16T06:49:09.799Z,13.30
2018-10-16T06:51:38.362Z,13.30
2018-10-16T06:54:07.476Z,13.30
2018-10-16T06:56:36.049Z,13.30
2018-10-16T06:59:04.811Z,13.40
2018-10-16T07:01:33.368Z,13.40
2018-10-16T07:04:01.901Z,13.40
2018-10-16T07:06:31.719Z,13.40
2018-10-16T07:09:00.245Z,13.50
2018-10-16T07:11:28.813Z,13.50
2018-10-16T07:13:57.883Z,13.50
2018-10-16T07:16:26.476Z,13.50
2018-10-16T07:18:55.072Z,13.50
2018-10-16T07:21:23.661Z,13.50
2018-10-16T07:23:52.276Z,13.60
2018-10-16T07:26:20.776Z,13.60
2018-10-16T07:28:49.369Z,13.60
2018-10-16T07:31:17.932Z,13.70
2018-10-16T07:33:49.231Z,13.70
2018-10-16T07:36:17.809Z,13.80
2018-10-16T07:38:46.578Z,13.80
2018-10-16T07:41:15.174Z,13.80
2018-10-16T07:43:43.792Z,13.80
2018-10-16T07:46:12.437Z,13.80
2018-10-16T07:48:41.175Z,13.80
2018-10-16T07:51:09.544Z,13.80
2018-10-16T07:53:38.088Z,13.90
2018-10-16T07:56:06.684Z,13.90
2018-10-16T07:58:35.249Z,13.90
2018-10-16T08:01:03.837Z,13.90
2018-10-16T08:03:32.441Z,13.90
2018-10-16T08:06:00.977Z,14.00
2018-10-16T08:08:29.563Z,14.00
2018-10-16T08:10:58.102Z,14.00
2018-10-16T08:13:26.680Z,14.00
2018-10-16T08:15:55.962Z,14.10
2018-10-16T08:18:24.501Z,14.10
2018-10-16T08:20:53.265Z,14.10
2018-10-16T08:23:21.962Z,14.20
2018-10-16T08:25:50.749Z,14.20
2018-10-16T08:28:19.617Z,14.30
2018-10-16T08:30:48.173Z,14.40
2018-10-16T08:33:16.716Z,14.40
2018-10-16T08:35:45.332Z,14.50
2018-10-16T08:38:34.160Z,14.60
2018-10-16T08:41:03.601Z,14.70
2018-10-16T08:43:47.317Z,14.80
2018-10-16T08:46:27.857Z,14.90
2018-10-16T08:49:07.841Z,15.00
2018-10-16T08:51:40.572Z,15.10
2018-10-16T08:54:09.689Z,15.20
2018-10-16T08:56:38.208Z,15.30
2018-10-16T08:59:06.844Z,15.50
2018-10-16T09:01:35.512Z,15.60
2018-10-16T09:04:04.474Z,15.70
2018-10-16T09:06:33.403Z,15.80
2018-10-16T09:09:02.722Z,16.00
2018-10-16T09:11:31.239Z,16.10
2018-10-16T09:13:59.811Z,16.20
2018-10-16T09:16:28.360Z,16.30
2018-10-16T09:18:57.417Z,16.40
2018-10-16T09:21:26.038Z,16.60
2018-10-16T09:23:54.571Z,16.70
2018-10-16T09:26:23.175Z,16.80
2018-10-16T09:28:51.717Z,16.90
2018-10-16T09:31:20.246Z,17.10
2018-10-16T09:33:48.810Z,17.00
2018-10-16T09:36:17.360Z,17.30
2018-10-16T09:38:45.931Z,17.40
2018-10-16T09:41:14.498Z,17.60
2018-10-16T09:43:43.137Z,17.60
2018-10-16T09:46:11.827Z,17.70
2018-10-16T09:48:40.378Z,17.90
2018-10-16T09:51:08.933Z,18.00
2018-10-16T09:53:37.492Z,18.10
2018-10-16T09:56:06.151Z,18.20
2018-10-16T09:58:34.669Z,18.40
2018-10-16T10:01:08.534Z,18.50
2018-10-16T10:03:37.173Z,18.60
2018-10-16T10:06:06.038Z,18.70
2018-10-16T10:08:34.592Z,18.80
2018-10-16T10:11:03.195Z,19.00
2018-10-16T10:13:31.692Z,19.10
2018-10-16T10:16:00.642Z,19.20
2018-10-16T10:18:29.286Z,19.40
2018-10-16T10:20:57.854Z,19.50
2018-10-16T10:23:26.473Z,19.60
2018-10-16T10:25:55.208Z,19.70
2018-10-16T10:28:23.828Z,19.80
2018-10-16T10:30:52.412Z,19.90
2018-10-16T10:33:21.144Z,20.00
2018-10-16T10:35:49.706Z,20.20
2018-10-16T10:38:18.313Z,20.30
2018-10-16T10:40:46.854Z,20.50
2018-10-16T10:43:15.776Z,20.70
2018-10-16T10:45:44.420Z,20.80
2018-10-16T10:48:12.935Z,21.00
2018-10-16T10:50:41.674Z,21.20
2018-10-16T10:53:10.076Z,21.30
2018-10-16T10:55:38.696Z,21.40
2018-10-16T10:58:07.523Z,21.50
2018-10-16T11:00:36.169Z,21.50
2018-10-16T11:03:04.925Z,21.60
2018-10-16T11:05:33.492Z,21.70
2018-10-16T11:08:02.025Z,21.80
2018-10-16T11:10:30.590Z,21.90
2018-10-16T11:12:59.190Z,22.00
2018-10-16T11:15:27.779Z,22.10
2018-10-16T11:17:56.342Z,22.30
2018-10-16T11:20:24.902Z,22.40
2018-10-16T11:22:53.494Z,22.50
2018-10-16T11:25:22.121Z,22.70
2018-10-16T11:27:50.764Z,22.80
2018-10-16T11:30:19.352Z,22.90
2018-10-16T11:32:47.921Z,23.00
2018-10-16T11:35:16.472Z,23.20
2018-10-16T11:37:45.021Z,23.30
2018-10-16T11:40:13.604Z,23.40
2018-10-16T11:42:43.503Z,23.60
2018-10-16T11:45:12.254Z,23.70
2018-10-16T11:47:40.700Z,23.70
2018-10-16T11:50:10.808Z,23.80
2018-10-16T11:52:39.644Z,23.80
2018-10-16T11:55:09.082Z,23.90
2018-10-16T11:57:37.893Z,24.00
2018-10-16T12:00:16.352Z,24.20
2018-10-16T12:02:45.204Z,24.30
2018-10-16T12:05:14.009Z,24.50
2018-10-16T12:07:42.556Z,24.60
2018-10-16T12:10:11.412Z,24.70
2018-10-16T12:12:39.985Z,24.90
2018-10-16T12:15:08.744Z,25.10
2018-10-16T12:17:48.021Z,25.20
2018-10-16T12:20:27.119Z,25.40
2018-10-16T12:22:55.934Z,25.50
2018-10-16T12:25:24.734Z,25.70
2018-10-16T12:27:53.292Z,25.70
2018-10-16T12:30:21.986Z,25.90
2018-10-16T12:32:50.545Z,25.90
2018-10-16T12:35:19.294Z,25.90
2018-10-16T12:37:48.012Z,25.90
2018-10-16T12:40:16.646Z,26.00
2018-10-16T12:42:45.127Z,25.90
2018-10-16T12:45:14.233Z,25.80
2018-10-16T12:47:42.802Z,25.70
2018-10-16T12:50:11.392Z,25.50
2018-10-16T12:52:39.932Z,25.40
2018-10-16T12:55:08.667Z,25.30
2018-10-16T12:57:37.620Z,25.10
2018-10-16T13:00:06.809Z,25.00
2018-10-16T13:02:35.405Z,24.90
2018-10-16T13:05:03.998Z,24.80
2018-10-16T13:07:39.964Z,24.80
2018-10-16T13:10:17.626Z,24.70
2018-10-16T13:12:47.249Z,24.60
2018-10-16T13:15:16.906Z,24.50
2018-10-16T13:17:45.446Z,24.40
2018-10-16T13:20:15.059Z,24.40
2018-10-16T13:22:45.354Z,24.30
2018-10-16T13:25:14.934Z,24.30
2018-10-16T13:27:43.708Z,24.20
2018-10-16T13:30:14.365Z,24.20
2018-10-16T13:32:43.547Z,24.20
2018-10-16T13:35:16.134Z,24.10
2018-10-16T13:37:45.338Z,24.10
2018-10-16T13:40:14.084Z,24.00
2018-10-16T13:42:42.761Z,24.00
2018-10-16T13:45:12.457Z,23.90
2018-10-16T13:47:41.014Z,23.90
2018-10-16T13:50:12.418Z,23.90
2018-10-16T13:52:41.246Z,23.90
2018-10-16T13:55:10.752Z,23.80
2018-10-16T13:57:39.449Z,23.80
2018-10-16T14:00:13.443Z,23.80
2018-10-16T14:02:43.494Z,23.80
2018-10-16T14:05:12.398Z,23.80
2018-10-16T14:07:41.259Z,23.80
2018-10-16T14:10:11.376Z,23.80
2018-10-16T14:12:41.731Z,23.70
2018-10-16T14:15:11.141Z,23.70
2018-10-16T14:17:40.130Z,23.70
2018-10-16T14:20:09.486Z,23.70
2018-10-16T14:22:39.282Z,23.70
2018-10-16T14:25:09.068Z,23.70
2018-10-16T14:27:38.177Z,23.70
2018-10-16T14:30:08.029Z,23.70
2018-10-16T14:32:36.655Z,23.80
2018-10-16T14:35:06.337Z,23.80
2018-10-16T14:37:34.990Z,23.80
2018-10-16T14:40:03.594Z,23.80
2018-10-16T14:42:32.148Z,23.90
2018-10-16T14:45:00.818Z,24.00
2018-10-16T14:47:29.418Z,24.70
2018-10-16T14:49:58.080Z,26.20
2018-10-16T14:52:26.615Z,27.80
2018-10-16T14:54:55.166Z,28.50
2018-10-16T14:57:24.096Z,28.60
2018-10-16T14:59:53.415Z,29.20
2018-10-16T15:02:21.948Z,29.70
2018-10-16T15:04:50.530Z,29.40
2018-10-16T15:07:19.209Z,29.20
2018-10-16T15:09:47.918Z,28.80
2018-10-16T15:12:16.521Z,28.30
2018-10-16T15:14:45.226Z,27.80
2018-10-16T15:17:13.820Z,27.60
2018-10-16T15:19:42.459Z,27.20
2018-10-16T15:22:11.102Z,26.90
2018-10-16T15:24:39.591Z,26.50
2018-10-16T15:27:08.360Z,26.20
2018-10-16T15:29:36.948Z,25.80
2018-10-16T15:32:05.797Z,25.50
2018-10-16T15:34:34.592Z,25.20
2018-10-16T15:37:03.152Z,25.00
2018-10-16T15:39:31.813Z,24.80
2018-10-16T15:42:00.412Z,24.50
2018-10-16T15:44:29.514Z,24.40
2018-10-16T15:46:58.217Z,24.10
2018-10-16T15:49:26.814Z,23.90
2018-10-16T15:51:55.470Z,23.80
2018-10-16T15:54:24.061Z,23.70
2018-10-16T15:56:52.636Z,23.50
2018-10-16T15:59:21.284Z,23.30
2018-10-16T16:01:49.989Z,23.20
2018-10-16T16:04:18.653Z,23.10
2018-10-16T16:06:47.291Z,22.90
2018-10-16T16:09:15.927Z,22.70
2018-10-16T16:11:44.526Z,22.60
2018-10-16T16:14:13.150Z,22.40
2018-10-16T16:16:41.731Z,22.30
2018-10-16T16:19:10.285Z,22.20
2018-10-16T16:21:38.945Z,22.00
2018-10-16T16:24:07.640Z,21.90
2018-10-16T16:26:36.277Z,21.80
2018-10-16T16:29:04.949Z,21.90
2018-10-16T16:31:33.625Z,21.80
2018-10-16T16:34:02.376Z,21.60
2018-10-16T16:36:30.968Z,21.50
2018-10-16T16:38:59.550Z,21.40
2018-10-16T16:41:28.107Z,21.30
2018-10-16T16:43:56.860Z,21.10
2018-10-16T16:46:25.390Z,21.00
2018-10-16T16:48:53.982Z,20.90
2018-10-16T16:51:22.661Z,20.80
2018-10-16T16:53:51.203Z,20.70
2018-10-16T16:56:19.778Z,20.60
2018-10-16T16:58:48.389Z,20.60
2018-10-16T17:01:16.930Z,20.50
2018-10-16T17:03:45.513Z,20.40
2018-10-16T17:06:14.149Z,20.30
2018-10-16T17:08:42.728Z,20.30
2018-10-16T17:11:11.834Z,20.20
2018-10-16T17:13:40.481Z,20.20
2018-10-16T17:16:09.577Z,20.10
2018-10-16T17:18:38.249Z,20.00
2018-10-16T17:21:07.086Z,20.00
2018-10-16T17:23:35.727Z,19.90
2018-10-16T17:26:04.786Z,19.90
2018-10-16T17:28:34.138Z,19.80
2018-10-16T17:31:03.163Z,19.70
2018-10-16T17:33:33.356Z,19.70
2018-10-16T17:36:02.474Z,19.60
2018-10-16T17:38:31.378Z,19.50
2018-10-16T17:40:59.961Z,19.50
2018-10-16T17:43:28.782Z,19.50
2018-10-16T17:45:57.388Z,19.40
2018-10-16T17:48:25.946Z,19.40
2018-10-16T17:50:54.561Z,19.30
2018-10-16T17:53:23.121Z,19.30
2018-10-16T17:55:51.632Z,19.20
2018-10-16T17:58:20.255Z,19.20
2018-10-16T18:00:48.984Z,19.20
2018-10-16T18:03:17.579Z,19.10
2018-10-16T18:05:46.205Z,19.00
2018-10-16T18:08:14.800Z,19.00
2018-10-16T18:10:43.385Z,18.90
2018-10-16T18:13:12.499Z,18.90
2018-10-16T18:15:42.699Z,18.80
2018-10-16T18:18:11.357Z,18.80
2018-10-16T18:20:39.927Z,18.80
2018-10-16T18:23:08.910Z,18.70
2018-10-16T18:25:38.038Z,18.70
2018-10-16T18:28:06.951Z,18.70
2018-10-16T18:30:35.503Z,18.60
2018-10-16T18:33:04.166Z,18.60
2018-10-16T18:35:32.707Z,18.60
2018-10-16T18:38:01.319Z,18.50
2018-10-16T18:40:30.943Z,18.50
2018-10-16T18:42:59.568Z,18.50
2018-10-16T18:45:28.267Z,18.40
2018-10-16T18:47:57.016Z,18.40
2018-10-16T18:50:25.560Z,18.40
2018-10-16T18:52:54.252Z,18.40
2018-10-16T18:55:22.864Z,18.30
2018-10-16T18:57:51.437Z,18.30
2018-10-16T19:00:20.489Z,18.30
2018-10-16T19:02:50.200Z,18.20
2018-10-16T19:05:18.932Z,18.20
2018-10-16T19:07:48.705Z,18.20
2018-10-16T19:10:17.206Z,18.20
2018-10-16T19:12:45.863Z,18.20
2018-10-16T19:15:17.230Z,18.20
2018-10-16T19:17:46.727Z,18.20
2018-10-16T19:20:16.404Z,18.20
2018-10-16T19:22:46.160Z,18.20
2018-10-16T19:25:17.591Z,18.20
2018-10-16T19:27:46.488Z,18.20
2018-10-16T19:30:15.070Z,18.20
2018-10-16T19:32:43.813Z,18.20
2018-10-16T19:35:13.676Z,18.20
2018-10-16T19:37:42.482Z,18.20
2018-10-16T19:40:11.157Z,18.10
2018-10-16T19:42:39.740Z,18.10
2018-10-16T19:45:08.881Z,18.20
2018-10-16T19:47:37.556Z,18.20
2018-10-16T19:50:06.938Z,18.20
2018-10-16T19:52:35.521Z,18.10
2018-10-16T19:55:04.249Z,18.10
2018-10-16T19:57:32.797Z,18.00
2018-10-16T20:00:01.376Z,18.00
2018-10-16T20:02:29.959Z,18.00
2018-10-16T20:04:58.537Z,17.90
2018-10-16T20:07:27.121Z,17.90
2018-10-16T20:09:57.772Z,17.90
2018-10-16T20:12:26.376Z,17.90
2018-10-16T20:14:54.927Z,17.90
2018-10-16T20:17:23.527Z,17.90
2018-10-16T20:19:52.162Z,17.90
2018-10-16T20:22:20.741Z,17.80
2018-10-16T20:24:49.472Z,17.80
2018-10-16T20:27:17.999Z,17.80
2018-10-16T20:29:46.598Z,17.80
2018-10-16T20:32:15.203Z,17.80
2018-10-16T20:34:43.813Z,17.80
2018-10-16T20:37:12.429Z,17.80
2018-10-16T20:39:41.009Z,17.80
2018-10-16T20:42:09.690Z,17.80
2018-10-16T20:44:38.190Z,17.80
2018-10-16T20:47:06.780Z,17.80
2018-10-16T20:49:35.316Z,17.80
2018-10-16T20:52:03.897Z,17.80
2018-10-16T20:54:32.530Z,17.80
2018-10-16T20:57:01.066Z,17.80
2018-10-16T20:59:29.712Z,17.70
2018-10-16T21:01:58.264Z,17.70
2018-10-16T21:04:26.873Z,17.70
2018-10-16T21:06:55.643Z,17.70
2018-10-16T21:09:24.020Z,17.70
2018-10-16T21:11:52.951Z,17.70
2018-10-16T21:14:21.539Z,17.70
2018-10-16T21:16:50.482Z,17.60
2018-10-16T21:19:19.117Z,17.60
2018-10-16T21:21:47.769Z,17.60
2018-10-16T21:24:16.302Z,17.60
2018-10-16T21:26:44.949Z,17.60
2018-10-16T21:29:13.501Z,17.60
2018-10-16T21:31:42.016Z,17.60
2018-10-16T21:34:10.623Z,17.50
2018-10-16T21:36:39.154Z,17.50
2018-10-16T21:39:07.799Z,17.50
2018-10-16T21:41:37.517Z,17.40
2018-10-16T21:44:06.390Z,17.40
2018-10-16T21:46:35.010Z,17.40
2018-10-16T21:49:03.715Z,17.30
2018-10-16T21:51:32.249Z,17.30
2018-10-16T21:54:00.764Z,17.30
2018-10-16T21:56:29.293Z,17.20
2018-10-16T21:58:57.910Z,17.20
2018-10-16T22:01:31.599Z,17.10
2018-10-16T22:04:00.189Z,17.10
2018-10-16T22:06:28.872Z,17.10
2018-10-16T22:08:57.453Z,17.00
2018-10-16T22:11:25.953Z,17.00
2018-10-16T22:13:54.479Z,16.90
2018-10-16T22:16:23.048Z,16.90
2018-10-16T22:18:51.603Z,16.90
2018-10-16T22:21:20.176Z,16.90
2018-10-16T22:23:48.761Z,16.80
2018-10-16T22:26:17.289Z,16.80
2018-10-16T22:28:45.811Z,16.80
2018-10-16T22:31:14.438Z,16.70
2018-10-16T22:33:42.979Z,16.70
2018-10-16T22:36:11.501Z,16.70
2018-10-16T22:38:40.055Z,16.70
2018-10-16T22:41:08.963Z,16.70
2018-10-16T22:43:37.439Z,16.70
2018-10-16T22:46:06.364Z,16.70
2018-10-16T22:48:34.928Z,16.70
2018-10-16T22:51:03.553Z,16.70
2018-10-16T22:53:32.078Z,16.60
2018-10-16T22:56:00.701Z,16.60
2018-10-16T22:58:29.313Z,16.60
2018-10-16T23:00:57.907Z,16.60
2018-10-16T23:03:26.481Z,16.50
2018-10-16T23:05:56.427Z,16.50
2018-10-16T23:08:24.988Z,16.50
2018-10-16T23:10:53.564Z,16.40
2018-10-16T23:13:22.060Z,16.40
2018-10-16T23:15:50.596Z,16.40
2018-10-16T23:18:19.117Z,16.40
2018-10-16T23:20:47.708Z,16.40
2018-10-16T23:23:16.372Z,16.40
2018-10-16T23:25:44.831Z,16.30
2018-10-16T23:28:13.411Z,16.30
2018-10-16T23:30:41.905Z,16.30
2018-10-16T23:33:10.467Z,16.30
2018-10-16T23:35:39.000Z,16.30
2018-10-16T23:38:07.570Z,16.20
2018-10-16T23:40:36.104Z,16.20
2018-10-16T23:43:04.873Z,16.20
2018-10-16T23:45:33.356Z,16.10
2018-10-16T23:48:01.907Z,16.10
2018-10-16T23:50:30.490Z,16.10
2018-10-16T23:52:59.071Z,16.00
2018-10-16T23:55:27.607Z,16.00
2018-10-16T23:57:56.193Z,15.90
